Time;durP1;ratioP1;P1;durP2;ratioP2;P2;SDS_P1;SDS_P2;PMS_P1;PMS_P2;Temp;Humidity;BMP_temperature;BMP_pressure;BME280_temperature;BME280_humidity;BME280_pressure;Samples;Min_cycle;Max_cycle;Signal;HPM_P1;HPM_P2
2022/01/28 00:01:19;;;;;;;0.00;0.00;;;5.40;99.90;;;;;;4985472;28;20055;-78
2022/01/28 00:03:45;;;;;;;0.00;0.00;;;5.50;99.90;;;;;;4984658;28;20023;-75
2022/01/28 00:06:10;;;;;;;0.00;0.00;;;5.50;99.90;;;;;;4986475;28;20046;-78
2022/01/28 00:08:36;;;;;;;0.00;0.00;;;5.50;99.90;;;;;;4986340;28;20036;-77
2022/01/28 00:11:02;;;;;;;0.00;0.00;;;5.60;99.90;;;;;;4984011;28;20033;-77
2022/01/28 00:13:35;;;;;;;0.00;0.00;;;5.50;99.90;;;;;;4985020;28;20322;-77
2022/01/28 00:19:56;;;;;;;0.00;0.00;;;5.60;99.90;;;;;;4986030;28;20026;-75
2022/01/28 00:38:07;;;;;;;0.00;0.00;;;5.70;99.90;;;;;;5007782;28;20029;-77
2022/01/28 00:40:34;;;;;;;0.00;0.00;;;5.70;99.90;;;;;;5008674;28;20023;-77
2022/01/28 00:43:00;;;;;;;0.00;0.00;;;5.70;99.90;;;;;;4990430;28;20301;-79
2022/01/28 00:45:26;;;;;;;0.00;0.00;;;5.80;99.90;;;;;;4989114;28;20137;-80
2022/01/28 00:47:52;;;;;;;0.00;0.00;;;5.80;99.90;;;;;;4989972;28;20025;-80
2022/01/28 00:50:18;;;;;;;0.00;0.00;;;5.80;99.90;;;;;;5009503;28;20029;-80
2022/01/28 00:52:44;;;;;;;0.00;0.00;;;5.80;99.90;;;;;;5009468;28;20018;-79
2022/01/28 00:55:10;;;;;;;0.00;0.00;;;5.80;99.90;;;;;;5007736;28;20022;-79
2022/01/28 00:57:36;;;;;;;0.00;0.00;;;5.70;99.90;;;;;;4988352;28;20022;-80
2022/01/28 01:00:05;;;;;;;0.00;0.00;;;5.70;99.90;;;;;;5004703;28;20030;-80
2022/01/28 01:02:30;;;;;;;0.00;0.00;;;5.70;99.90;;;;;;5004304;28;20089;-82
2022/01/28 01:04:56;;;;;;;0.00;0.00;;;5.70;99.90;;;;;;4986746;28;20026;-81
2022/01/28 01:07:22;;;;;;;0.00;0.00;;;5.80;99.90;;;;;;4987223;28;20018;-82
2022/01/28 01:09:49;;;;;;;0.00;0.00;;;5.80;99.90;;;;;;4987219;28;20026;-77
2022/01/28 01:12:18;;;;;;;0.00;0.00;;;5.70;99.90;;;;;;4987023;28;20025;-83
2022/01/28 01:14:45;;;;;;;;;;;5.70;99.90;;;;;;5005048;28;20018;-79
2022/01/28 01:17:28;;;;;;;0.00;0.00;;;5.70;99.90;;;;;;4986666;28;19902;-80
2022/01/28 01:20:10;;;;;;;0.00;0.00;;;5.70;99.90;;;;;;5004122;28;20026;-82
2022/01/28 01:22:38;;;;;;;0.00;0.00;;;5.60;99.90;;;;;;4987679;28;20029;-89
2022/01/28 01:25:14;;;;;;;0.00;0.00;;;5.60;99.90;;;;;;4986998;28;20091;-86
2022/01/28 01:27:41;;;;;;;0.00;0.00;;;5.60;99.90;;;;;;4987110;28;20045;-84
2022/01/28 01:30:07;;;;;;;0.00;0.00;;;5.60;99.90;;;;;;5003955;28;20033;-83
2022/01/28 01:32:34;;;;;;;0.00;0.00;;;5.60;99.90;;;;;;5004176;28;20042;-84
2022/01/28 01:34:59;;;;;;;0.00;0.00;;;5.60;99.90;;;;;;5003670;28;20023;-76
2022/01/28 01:37:25;;;;;;;0.00;0.00;;;5.60;99.90;;;;;;4986843;28;20201;-75
2022/01/28 01:39:52;;;;;;;0.00;0.00;;;5.70;99.90;;;;;;5003637;28;20322;-76
2022/01/28 01:42:30;;;;;;;0.00;0.00;;;5.70;99.90;;;;;;4986778;28;20221;-75
2022/01/28 01:53:10;;;;;;;0.00;0.00;;;5.70;99.90;;;;;;5003296;28;20025;-77
2022/01/28 01:55:36;;;;;;;0.00;0.00;;;5.70;99.90;;;;;;5004052;28;20026;-77
2022/01/28 01:58:02;;;;;;;0.00;0.00;;;5.70;99.90;;;;;;5003305;28;20018;-77
2022/01/28 02:00:28;;;;;;;0.00;0.00;;;5.70;99.90;;;;;;4986464;28;20041;-76
2022/01/28 02:02:54;;;;;;;0.00;0.00;;;5.60;99.90;;;;;;5003074;28;20014;-74
2022/01/28 02:05:19;;;;;;;0.00;0.00;;;5.60;99.90;;;;;;4986442;28;20026;-75
2022/01/28 02:07:46;;;;;;;0.00;0.00;;;5.50;99.90;;;;;;5003626;28;20056;-75
2022/01/28 02:10:12;;;;;;;0.00;0.00;;;5.50;99.90;;;;;;4985788;28;20309;-76
2022/01/28 02:12:48;;;;;;;0.00;0.00;;;5.50;99.90;;;;;;4985999;28;20201;-76
2022/01/28 02:15:15;;;;;;;0.00;0.00;;;5.50;99.90;;;;;;5002550;28;20026;-79
2022/01/28 02:17:41;;;;;;;0.00;0.00;;;5.40;99.90;;;;;;4986338;28;20024;-79
2022/01/28 02:20:34;;;;;;;0.00;0.00;;;5.40;99.90;;;;;;4985499;28;20286;-79
2022/01/28 02:23:01;;;;;;;0.00;0.00;;;5.40;99.90;;;;;;4984836;28;20045;-79
2022/01/28 02:25:31;;;;;;;0.00;0.00;;;5.50;99.90;;;;;;5003527;28;20028;-79
2022/01/28 02:28:02;;;;;;;0.00;0.00;;;5.40;99.90;;;;;;4985447;28;20050;-78
2022/01/28 02:30:28;;;;;;;0.00;0.00;;;5.40;99.90;;;;;;5003332;28;20145;-79
2022/01/28 02:33:01;;;;;;;0.00;0.00;;;5.40;99.90;;;;;;5003492;28;20030;-76
2022/01/28 02:35:27;;;;;;;0.00;0.00;;;5.50;99.90;;;;;;4986254;28;20026;-79
2022/01/28 02:37:53;;;;;;;0.00;0.00;;;5.50;99.90;;;;;;4986187;28;20019;-75
2022/01/28 02:40:19;;;;;;;0.00;0.00;;;5.40;99.90;;;;;;4985601;28;20078;-81
2022/01/28 02:42:53;;;;;;;0.00;0.00;;;5.40;99.90;;;;;;5003028;28;20022;-79
2022/01/28 02:45:41;;;;;;;0.00;0.00;;;5.30;99.90;;;;;;4985592;28;20025;-79
2022/01/28 02:48:13;;;;;;;0.00;0.00;;;5.30;99.90;;;;;;5001822;28;20036;-79
2022/01/28 02:50:47;;;;;;;0.00;0.00;;;5.30;99.90;;;;;;5003410;28;20022;-80
2022/01/28 02:53:21;;;;;;;0.00;0.00;;;5.30;99.90;;;;;;4985363;28;20018;-80
2022/01/28 02:55:47;;;;;;;0.00;0.00;;;5.40;99.90;;;;;;4986073;28;20097;-81
2022/01/28 02:58:22;;;;;;;0.00;0.00;;;5.40;99.90;;;;;;4985199;28;20029;-80
2022/01/28 03:00:49;;;;;;;0.00;0.00;;;5.40;99.90;;;;;;4985937;28;20030;-81
2022/01/28 03:03:18;;;;;;;0.00;0.00;;;5.40;99.90;;;;;;4984768;28;20081;-81
2022/01/28 03:05:45;;;;;;;0.00;0.00;;;5.40;99.90;;;;;;4985815;28;20097;-79
2022/01/28 03:08:12;;;;;;;0.00;0.00;;;5.40;99.90;;;;;;4982791;28;20019;-76
2022/01/28 03:15:42;;;;;;;0.00;0.00;;;5.30;99.90;;;;;;4999540;28;20025;-80
2022/01/28 03:18:18;;;;;;;0.00;0.00;;;5.30;99.90;;;;;;4998863;28;20019;-79
2022/01/28 03:23:18;;;;;;;0.00;0.00;;;5.30;99.90;;;;;;4998852;28;20058;-77
2022/01/28 03:25:46;;;;;;;0.00;0.00;;;5.30;99.90;;;;;;4981882;28;20019;-80
2022/01/28 03:28:14;;;;;;;0.00;0.00;;;5.30;99.90;;;;;;4981115;28;20065;-78
2022/01/28 03:30:40;;;;;;;0.00;0.00;;;5.30;99.90;;;;;;4999460;28;20205;-79
2022/01/28 03:33:06;;;;;;;0.00;0.00;;;5.30;99.90;;;;;;4998746;28;20083;-78
2022/01/28 03:35:34;;;;;;;0.00;0.00;;;5.30;99.90;;;;;;4985346;28;20313;-76
2022/01/28 03:38:01;;;;;;;0.00;0.00;;;5.20;99.90;;;;;;5002048;28;20077;-76
2022/01/28 03:40:28;;;;;;;0.00;0.00;;;5.20;99.90;;;;;;4986311;28;20113;-78
2022/01/28 03:42:54;;;;;;;0.00;0.00;;;5.30;99.90;;;;;;4985493;28;20026;-81
2022/01/28 03:45:20;;;;;;;0.00;0.00;;;5.30;99.90;;;;;;4984070;28;20054;-79
2022/01/28 03:47:45;;;;;;;0.00;0.00;;;5.30;99.90;;;;;;4984847;28;20519;-77
2022/01/28 03:50:11;;;;;;;0.00;0.00;;;5.30;99.90;;;;;;5002285;28;20022;-81
2022/01/28 03:52:37;;;;;;;0.00;0.00;;;5.40;99.90;;;;;;5005941;28;20266;-81
2022/01/28 03:55:03;;;;;;;0.00;0.00;;;5.40;99.90;;;;;;5005420;28;20018;-78
2022/01/28 03:57:29;;;;;;;0.00;0.00;;;5.50;99.90;;;;;;4988648;28;20069;-79
2022/01/28 03:59:55;;;;;;;0.00;0.00;;;5.50;99.90;;;;;;5005706;28;20317;-80
2022/01/28 04:02:25;;;;;;;0.00;0.00;;;5.50;99.90;;;;;;4987508;28;20022;-80
2022/01/28 04:12:52;;;;;;;0.00;0.00;;;5.50;99.90;;;;;;5005834;28;20060;-83
2022/01/28 04:15:35;;;;;;;0.00;0.00;;;5.50;99.90;;;;;;4987821;28;20022;-77
2022/01/28 04:18:00;;;;;;;0.00;0.00;;;5.50;99.90;;;;;;4988191;28;20018;-76
2022/01/28 04:20:26;;;;;;;0.00;0.00;;;5.50;99.90;;;;;;4988251;28;20037;-81
2022/01/28 04:22:52;;;;;;;0.00;0.00;;;5.50;99.90;;;;;;5005313;28;20273;-81
2022/01/28 04:25:17;;;;;;;0.00;0.00;;;5.50;99.90;;;;;;5004922;28;20282;-80
2022/01/28 04:27:43;;;;;;;0.00;0.00;;;5.50;99.90;;;;;;4987611;28;20049;-82
2022/01/28 04:30:09;;;;;;;0.00;0.00;;;5.50;99.90;;;;;;5005427;28;20030;-84
2022/01/28 04:32:37;;;;;;;0.00;0.00;;;5.50;99.90;;;;;;4987583;28;20018;-83
2022/01/28 04:35:03;;;;;;;0.00;0.00;;;5.60;99.90;;;;;;4987602;28;20022;-79
2022/01/28 04:40:21;;;;;;;0.00;0.00;;;5.60;99.90;;;;;;5005309;28;20327;-75
2022/01/28 04:43:02;;;;;;;0.00;0.00;;;5.60;99.90;;;;;;5004562;28;20054;-75
2022/01/28 05:04:20;;;;;;;0.00;0.00;;;5.70;99.90;;;;;;5004454;28;20018;-75
2022/01/28 05:06:40;;;;;;;0.00;0.00;;;5.80;99.90;;;;;;4990448;28;20030;-75
2022/01/28 05:14:32;;;;;;;0.00;0.00;;;5.70;99.90;;;;;;5001966;28;20030;-74
2022/01/28 05:27:23;;;;;;;0.00;0.00;;;5.60;99.90;;;;;;5003846;28;20128;-76
2022/01/28 05:29:48;;;;;;;0.00;0.00;;;5.60;99.90;;;;;;4987073;28;20093;-76
2022/01/28 05:32:14;;;;;;;0.00;0.00;;;5.60;99.90;;;;;;5003500;28;20038;-77
2022/01/28 05:34:41;;;;;;;0.00;0.00;;;5.60;99.90;;;;;;5004457;28;20026;-76
2022/01/28 05:37:07;;;;;;;0.00;0.00;;;5.60;99.90;;;;;;4986325;28;20202;-76
2022/01/28 05:39:34;;;;;;;0.00;0.00;;;5.60;99.90;;;;;;4986603;28;20070;-76
2022/01/28 05:41:59;;;;;;;0.00;0.00;;;5.60;99.90;;;;;;5003359;28;20064;-76
2022/01/28 05:44:27;;;;;;;0.00;0.00;;;5.60;99.90;;;;;;4985908;28;20057;-76
2022/01/28 05:46:55;;;;;;;0.00;0.00;;;5.60;99.90;;;;;;4987045;28;20081;-75
2022/01/28 05:49:21;;;;;;;0.00;0.00;;;5.60;99.90;;;;;;4986133;28;20069;-74
2022/01/28 05:51:47;;;;;;;0.00;0.00;;;5.60;99.90;;;;;;4986081;28;20321;-75
2022/01/28 05:54:13;;;;;;;0.00;0.00;;;5.70;99.90;;;;;;4986033;28;20018;-74
2022/01/28 05:56:39;;;;;;;0.00;0.00;;;5.70;99.90;;;;;;5003702;28;20049;-78
2022/01/28 05:59:05;;;;;;;0.00;0.00;;;5.70;99.90;;;;;;4986324;28;20020;-77
2022/01/28 06:01:31;;;;;;;0.00;0.00;;;5.70;99.90;;;;;;5003158;28;20034;-77
2022/01/28 06:03:57;;;;;;;0.00;0.00;;;5.60;99.90;;;;;;4986087;28;20253;-79
2022/01/28 06:06:24;;;;;;;0.00;0.00;;;5.60;99.90;;;;;;4985970;28;20069;-78
2022/01/28 06:08:54;;;;;;;0.00;0.00;;;5.60;99.90;;;;;;5003720;28;20089;-75
2022/01/28 06:11:22;;;;;;;0.00;0.00;;;5.60;99.90;;;;;;4985764;28;20022;-72
2022/01/28 06:13:48;;;;;;;0.00;0.00;;;5.50;99.90;;;;;;5003843;28;20021;-77
2022/01/28 06:16:15;;;;;;;0.00;0.00;;;5.50;99.90;;;;;;5003138;28;20050;-81
2022/01/28 06:18:42;;;;;;;0.00;0.00;;;5.50;99.90;;;;;;4985769;28;20025;-82
2022/01/28 06:21:08;;;;;;;0.00;0.00;;;5.60;99.90;;;;;;4985940;28;20035;-77
2022/01/28 06:23:34;;;;;;;0.00;0.00;;;5.60;99.90;;;;;;4985743;28;20018;-84
2022/01/28 06:26:00;;;;;;;0.00;0.00;;;5.60;99.90;;;;;;4986290;28;20081;-80
2022/01/28 06:28:26;;;;;;;0.00;0.00;;;5.70;99.90;;;;;;5002485;28;20080;-72
2022/01/28 06:30:52;;;;;;;0.00;0.00;;;5.60;99.90;;;;;;5003052;28;20093;-86
2022/01/28 06:33:18;;;;;;;0.00;0.00;;;5.60;99.90;;;;;;4985495;28;20297;-81
2022/01/28 06:35:45;;;;;;;0.00;0.00;;;5.60;99.90;;;;;;4985522;28;20105;-76
2022/01/28 06:38:11;;;;;;;0.00;0.00;;;5.70;99.90;;;;;;4985505;28;20022;-73
2022/01/28 06:40:38;;;;;;;0.00;0.00;;;5.70;99.90;;;;;;5003336;28;20035;-76
2022/01/28 06:43:07;;;;;;;0.00;0.00;;;5.60;99.90;;;;;;4986118;28;20040;-75
2022/01/28 06:45:32;;;;;;;0.00;0.00;;;5.60;99.90;;;;;;4985408;28;20054;-75
2022/01/28 06:47:58;;;;;;;0.00;0.00;;;5.60;99.90;;;;;;5003145;28;20217;-76
2022/01/28 06:50:24;;;;;;;0.00;0.00;;;5.60;99.90;;;;;;4985654;28;20187;-74
2022/01/28 06:52:50;;;;;;;0.00;0.00;;;5.50;99.90;;;;;;4985991;28;20078;-72
2022/01/28 06:55:16;;;;;;;0.00;0.00;;;5.50;99.90;;;;;;4985261;28;20101;-73
2022/01/28 06:57:42;;;;;;;0.00;0.00;;;5.50;99.90;;;;;;4985592;28;20018;-73
2022/01/28 07:00:10;;;;;;;0.00;0.00;;;5.50;99.90;;;;;;4985839;28;20097;-71
2022/01/28 07:02:36;;;;;;;0.00;0.00;;;5.40;99.90;;;;;;4985837;28;20022;-71
2022/01/28 07:05:02;;;;;;;0.00;0.00;;;5.40;99.90;;;;;;4985982;28;20287;-74
2022/01/28 07:07:28;;;;;;;0.00;0.00;;;5.50;99.90;;;;;;4987122;28;20297;-77
2022/01/28 07:09:54;;;;;;;0.00;0.00;;;5.50;99.90;;;;;;5010710;28;20018;-74
2022/01/28 07:12:21;;;;;;;0.00;0.00;;;5.60;99.90;;;;;;4994934;28;20297;-77
2022/01/28 07:14:48;;;;;;;0.00;0.00;;;5.50;99.90;;;;;;5011432;28;20037;-77
2022/01/28 07:17:15;;;;;;;0.00;0.00;;;5.60;99.90;;;;;;4991209;28;20057;-76
2022/01/28 07:19:40;;;;;;;0.00;0.00;;;5.60;99.90;;;;;;4990310;28;20061;-75
2022/01/28 07:22:07;;;;;;;0.00;0.00;;;5.60;99.90;;;;;;4991696;28;20026;-75
2022/01/28 07:24:33;;;;;;;0.00;0.00;;;5.60;99.90;;;;;;4993227;28;20018;-74
2022/01/28 07:26:58;;;;;;;0.00;0.00;;;5.60;99.90;;;;;;5008932;28;20042;-74
2022/01/28 07:29:28;;;;;;;0.00;0.00;;;5.60;99.90;;;;;;5008630;28;20068;-77
2022/01/28 07:31:54;;;;;;;0.00;0.00;;;5.60;99.90;;;;;;5007719;28;20134;-75
2022/01/28 07:34:20;;;;;;;0.00;0.00;;;5.60;99.90;;;;;;5005790;28;20038;-79
2022/01/28 07:36:46;;;;;;;0.00;0.00;;;5.60;99.90;;;;;;4988937;28;20022;-73
2022/01/28 07:39:12;;;;;;;0.00;0.00;;;5.60;99.90;;;;;;4988680;28;20018;-74
2022/01/28 07:41:39;;;;;;;0.00;0.00;;;5.60;99.90;;;;;;4988353;28;20030;-78
2022/01/28 07:44:05;;;;;;;0.00;0.00;;;5.60;99.90;;;;;;4989225;28;20030;-81
2022/01/28 07:46:31;;;;;;;0.00;0.00;;;5.70;99.90;;;;;;4988647;28;20060;-81
2022/01/28 07:48:57;;;;;;;0.00;0.00;;;5.80;99.90;;;;;;5006368;28;20245;-80
2022/01/28 07:51:23;;;;;;;0.00;0.00;;;5.70;99.90;;;;;;5005236;28;20032;-82
2022/01/28 07:53:49;;;;;;;0.00;0.00;;;5.90;99.90;;;;;;4988953;28;20085;-77
2022/01/28 07:56:15;;;;;;;0.00;0.00;;;5.90;99.90;;;;;;4987939;28;20026;-77
2022/01/28 07:58:41;;;;;;;0.00;0.00;;;5.90;99.90;;;;;;4988155;28;20022;-81
2022/01/28 08:01:07;;;;;;;0.00;0.00;;;5.90;99.90;;;;;;4988089;28;20113;-77
2022/01/28 08:03:34;;;;;;;0.00;0.00;;;5.90;99.90;;;;;;4988214;28;20023;-78
2022/01/28 08:05:59;;;;;;;0.00;0.00;;;6.00;99.90;;;;;;4988988;28;20250;-82
2022/01/28 08:08:25;;;;;;;0.00;0.00;;;6.00;99.90;;;;;;5004824;28;20026;-76
2022/01/28 08:10:51;;;;;;;0.00;0.00;;;6.00;99.90;;;;;;5005491;28;20030;-79
2022/01/28 08:13:17;;;;;;;0.00;0.00;;;5.90;99.90;;;;;;4987993;28;20373;-73
2022/01/28 08:15:43;;;;;;;0.00;0.00;;;6.10;99.90;;;;;;4988193;28;20018;-77
2022/01/28 08:18:10;;;;;;;0.00;0.00;;;6.10;99.90;;;;;;4987924;28;20022;-78
2022/01/28 08:20:37;;;;;;;0.00;0.00;;;6.10;99.90;;;;;;4986563;28;20087;-77
2022/01/28 08:23:03;;;;;;;0.00;0.00;;;6.10;99.90;;;;;;5005785;28;20076;-82
2022/01/28 08:25:32;;;;;;;0.00;0.00;;;6.10;99.90;;;;;;4988062;28;20018;-77
2022/01/28 08:27:59;;;;;;;0.00;0.00;;;6.20;99.90;;;;;;5005801;28;20050;-75
2022/01/28 08:30:26;;;;;;;0.00;0.00;;;6.20;99.90;;;;;;4987694;28;20018;-74
2022/01/28 08:32:52;;;;;;;0.00;0.00;;;6.20;99.90;;;;;;4987689;28;20029;-76
2022/01/28 08:35:39;;;;;;;0.00;0.00;;;6.20;99.90;;;;;;5004832;28;20018;-77
2022/01/28 08:38:14;;;;;;;0.00;0.00;;;6.40;99.90;;;;;;4988044;28;20026;-84
2022/01/28 08:40:41;;;;;;;0.00;0.00;;;6.40;99.90;;;;;;4987708;28;20038;-83
2022/01/28 08:43:07;;;;;;;0.00;0.00;;;6.40;99.90;;;;;;5005444;28;20074;-82
2022/01/28 08:45:32;;;;;;;0.00;0.00;;;6.40;99.90;;;;;;5004618;28;20237;-70
2022/01/28 08:47:58;;;;;;;0.00;0.00;;;6.40;99.90;;;;;;5005336;28;20285;-73
2022/01/28 08:50:24;;;;;;;0.00;0.00;;;6.40;99.90;;;;;;4987535;28;20030;-78
2022/01/28 08:52:49;;;;;;;0.00;0.00;;;6.40;99.90;;;;;;4987528;28;20201;-80
2022/01/28 08:55:16;;;;;;;0.00;0.00;;;6.40;99.90;;;;;;4985461;28;20022;-82
2022/01/28 08:57:43;;;;;;;0.00;0.00;;;6.50;99.90;;;;;;4987482;28;20045;-76
2022/01/28 09:00:18;;;;;;;0.00;0.00;;;6.40;99.90;;;;;;4988379;28;20034;-79
2022/01/28 09:02:44;;;;;;;0.00;0.00;;;6.60;99.90;;;;;;4986841;28;20029;-83
2022/01/28 09:05:10;;;;;;;0.00;0.00;;;6.70;99.90;;;;;;4987332;28;20340;-82
2022/01/28 09:07:36;;;;;;;0.00;0.00;;;6.60;99.90;;;;;;4987233;28;20080;-79
2022/01/28 09:10:10;;;;;;;0.00;0.00;;;6.60;99.90;;;;;;4987182;28;20022;-73
2022/01/28 09:12:48;;;;;;;0.00;0.00;;;6.50;99.90;;;;;;5004241;28;20115;-77
2022/01/28 09:15:15;;;;;;;0.00;0.00;;;6.50;99.90;;;;;;5005094;28;20069;-80
2022/01/28 09:17:41;;;;;;;0.00;0.00;;;6.50;99.90;;;;;;4986655;28;20244;-75
2022/01/28 09:20:26;;;;;;;0.00;0.00;;;6.70;99.90;;;;;;4986664;28;20165;-81
2022/01/28 09:22:51;;;;;;;0.00;0.00;;;7.00;99.90;;;;;;4987502;28;20113;-83
2022/01/28 09:25:17;;;;;;;0.00;0.00;;;7.20;99.90;;;;;;5004793;28;20313;-79
2022/01/28 09:27:43;;;;;;;0.00;0.00;;;7.10;99.90;;;;;;5003693;28;20322;-84
2022/01/28 09:30:09;;;;;;;0.00;0.00;;;7.30;99.90;;;;;;4986340;28;20081;-81
2022/01/28 09:32:35;;;;;;;0.00;0.00;;;7.20;99.90;;;;;;5002615;28;20023;-80
2022/01/28 09:35:02;;;;;;;0.00;0.00;;;7.10;99.90;;;;;;4986975;28;20028;-85
2022/01/28 09:37:28;;;;;;;0.00;0.00;;;6.90;99.90;;;;;;4986339;28;20089;-81
2022/01/28 09:39:54;;;;;;;0.00;0.00;;;6.80;99.90;;;;;;4986499;28;20029;-79
2022/01/28 09:42:24;;;;;;;0.00;0.00;;;6.80;99.90;;;;;;4985924;28;20018;-78
2022/01/28 09:44:50;;;;;;;0.00;0.00;;;6.80;99.90;;;;;;4987012;28;20022;-79
2022/01/28 09:47:16;;;;;;;0.00;0.00;;;6.80;99.90;;;;;;5003686;28;20324;-79
2022/01/28 09:49:43;;;;;;;0.00;0.00;;;6.80;99.90;;;;;;4986128;28;20029;-76
2022/01/28 09:52:11;;;;;;;0.00;0.00;;;6.90;99.90;;;;;;4985994;28;20116;-79
2022/01/28 09:54:38;;;;;;;;;;;6.90;99.90;;;;;;4986469;28;20026;-79
2022/01/28 09:57:22;;;;;;;0.00;0.00;;;6.80;99.90;;;;;;4986001;28;19929;-77
2022/01/28 09:59:48;;;;;;;0.00;0.00;;;6.80;99.90;;;;;;4985754;28;20053;-75
2022/01/28 10:02:15;;;;;;;0.00;0.00;;;6.80;99.90;;;;;;4986878;28;20022;-81
2022/01/28 10:04:41;;;;;;;0.00;0.00;;;6.80;99.90;;;;;;4986400;28;20099;-82
2022/01/28 10:07:13;;;;;;;0.00;0.00;;;6.80;99.90;;;;;;4986837;28;20329;-78
2022/01/28 10:09:56;;;;;;;0.00;0.00;;;6.90;99.90;;;;;;5003889;28;20280;-81
2022/01/28 10:12:35;;;;;;;0.00;0.00;;;6.90;99.90;;;;;;5003454;28;20095;-81
2022/01/28 10:15:05;;;;;;;0.00;0.00;;;7.00;99.90;;;;;;5004134;28;20037;-77
2022/01/28 10:17:52;;;;;;;0.00;0.00;;;7.30;99.90;;;;;;4985848;28;20045;-79
2022/01/28 10:20:22;;;;;;;0.00;0.00;;;7.50;99.90;;;;;;4986603;28;20117;-80
2022/01/28 10:22:58;;;;;;;0.00;0.00;;;7.30;99.90;;;;;;5003904;28;20018;-78
2022/01/28 10:25:35;;;;;;;0.00;0.00;;;7.40;99.90;;;;;;4986063;28;20120;-80
2022/01/28 10:28:07;;;;;;;0.00;0.00;;;7.40;99.90;;;;;;4983061;28;20057;-82
2022/01/28 10:30:43;;;;;;;0.00;0.00;;;7.40;99.90;;;;;;4995935;28;20022;-76
2022/01/28 10:33:11;;;;;;;0.00;0.00;;;7.40;99.90;;;;;;4999263;28;20027;-78
2022/01/28 10:35:38;;;;;;;0.00;0.00;;;7.30;99.90;;;;;;4999041;28;20098;-80
2022/01/28 10:38:07;;;;;;;0.00;0.00;;;7.40;99.90;;;;;;4984122;28;20030;-79
2022/01/28 10:40:34;;;;;;;0.00;0.00;;;7.50;99.90;;;;;;4983085;28;20046;-78
2022/01/28 10:43:00;;;;;;;0.00;0.00;;;7.70;99.90;;;;;;4984337;28;20348;-71
2022/01/28 10:45:30;;;;;;;0.00;0.00;;;7.70;99.90;;;;;;4987620;28;20019;-82
2022/01/28 10:47:58;;;;;;;0.00;0.00;;;7.50;99.90;;;;;;5003713;28;20019;-84
2022/01/28 10:50:37;;;;;;;0.00;0.00;;;7.40;99.90;;;;;;4988233;28;20123;-83
2022/01/28 10:53:15;;;;;;;0.00;0.00;;;7.30;99.90;;;;;;4987057;28;20027;-84
2022/01/28 10:55:45;;;;;;;0.00;0.00;;;7.10;99.90;;;;;;5002692;28;20030;-81
2022/01/28 10:58:15;;;;;;;0.00;0.00;;;7.00;99.90;;;;;;4987867;28;20081;-80
2022/01/28 11:00:43;;;;;;;0.00;0.00;;;6.90;99.90;;;;;;4998074;28;20410;-78
2022/01/28 11:03:10;;;;;;;;;;;6.90;99.90;;;;;;5003447;28;20019;-77
2022/01/28 11:05:37;;;;;;;0.00;0.00;;;6.90;99.90;;;;;;4987476;28;19902;-81
2022/01/28 11:08:06;;;;;;;0.00;0.00;;;7.00;99.90;;;;;;4987879;28;20262;-78
2022/01/28 11:10:32;;;;;;;0.00;0.00;;;6.90;99.90;;;;;;5002497;28;20069;-77
2022/01/28 11:12:59;;;;;;;0.00;0.00;;;6.80;99.90;;;;;;5002479;28;20023;-72
2022/01/28 11:20:53;;;;;;;0.00;0.00;;;6.70;99.90;;;;;;5293521;23;21886;-66
2022/01/28 11:23:45;;;;;;;0.00;0.00;;;6.80;99.90;;;;;;4965597;28;20118;-68
2022/01/28 11:26:35;;;;;;;0.00;0.00;;;6.80;99.90;;;;;;4993789;28;20669;-69
2022/01/28 11:29:17;;;;;;;0.00;0.00;;;6.80;99.90;;;;;;4977982;28;20033;-68
2022/01/28 11:31:54;;;;;;;0.00;0.00;;;7.00;99.90;;;;;;4996498;28;20113;-66
2022/01/28 11:34:29;;;;;;;0.00;0.00;;;7.00;99.90;;;;;;4965690;28;20094;-68
2022/01/28 11:37:02;;;;;;;0.00;0.00;;;7.20;99.90;;;;;;4977847;28;20057;-69
2022/01/28 11:39:38;;;;;;;0.00;0.00;;;7.30;99.90;;;;;;4995506;28;20030;-67
2022/01/28 11:42:09;;;;;;;0.00;0.00;;;7.50;99.90;;;;;;4995483;28;20327;-70
2022/01/28 11:44:50;;;;;;;0.00;0.00;;;7.60;99.90;;;;;;4978866;28;20030;-71
2022/01/28 11:47:35;;;;;;;0.00;0.00;;;7.70;99.90;;;;;;4978448;28;20036;-68
2022/01/28 11:50:19;;;;;;;0.00;0.00;;;7.90;99.90;;;;;;4995389;28;20030;-70
2022/01/28 11:52:50;;;;;;;0.00;0.00;;;7.90;99.90;;;;;;4965617;28;20400;-69
2022/01/28 11:55:25;;;;;;;0.00;0.00;;;8.00;99.90;;;;;;4995930;28;20506;-71
2022/01/28 11:57:56;;;;;;;0.00;0.00;;;8.00;99.90;;;;;;4981600;28;20018;-72
2022/01/28 12:00:22;;;;;;;0.00;0.00;;;7.90;99.90;;;;;;4996388;28;20030;-70
2022/01/28 12:02:51;;;;;;;0.00;0.00;;;7.80;99.90;;;;;;4983120;28;20049;-70
2022/01/28 12:05:24;;;;;;;;;;;7.80;99.90;;;;;;4967926;28;20137;-69
2022/01/28 12:07:50;;;;;;;0.00;0.00;;;8.00;99.90;;;;;;4995921;28;19916;-70
2022/01/28 12:10:18;;;;;;;0.00;0.00;;;8.10;99.90;;;;;;4977431;28;20113;-70
2022/01/28 12:12:49;;;;;;;0.00;0.00;;;8.10;99.90;;;;;;4978521;28;20094;-70
2022/01/28 12:15:18;;;;;;;0.00;0.00;;;8.10;99.90;;;;;;4977611;28;20311;-70
2022/01/28 12:17:51;;;;;;;0.00;0.00;;;8.00;99.90;;;;;;4977481;28;20321;-69
2022/01/28 12:20:22;;;;;;;0.00;0.00;;;8.00;99.90;;;;;;4960925;28;20130;-68
2022/01/28 12:23:02;;;;;;;0.00;0.00;;;7.90;99.90;;;;;;4960001;28;20054;-66
2022/01/28 12:25:37;;;;;;;0.00;0.00;;;8.00;99.80;;;;;;4963734;28;20023;-70
2022/01/28 12:28:41;;;;;;;0.00;0.00;;;8.00;99.90;;;;;;4961510;29;20094;-66
2022/01/28 12:31:23;;;;;;;0.00;0.00;;;7.90;99.90;;;;;;4962634;28;20047;-67
2022/01/28 12:33:52;;;;;;;0.00;0.00;;;7.90;99.90;;;;;;4963241;28;20023;-68
2022/01/28 12:36:24;;;;;;;0.00;0.00;;;7.80;99.90;;;;;;4962051;29;20023;-69
2022/01/28 12:39:08;;;;;;;0.00;0.00;;;7.70;99.90;;;;;;4962819;28;20019;-68
2022/01/28 12:41:42;;;;;;;0.00;0.00;;;7.50;99.90;;;;;;4963109;28;20038;-70
2022/01/28 12:44:10;;;;;;;0.00;0.00;;;7.40;99.90;;;;;;4962601;28;20361;-69
2022/01/28 12:46:38;;;;;;;0.00;0.00;;;7.40;99.90;;;;;;4963135;28;20415;-69
2022/01/28 12:49:03;;;;;;;0.00;0.00;;;7.40;99.90;;;;;;4961295;29;20030;-67
2022/01/28 12:51:35;;;;;;;0.00;0.00;;;7.30;99.90;;;;;;4962672;29;20087;-68
2022/01/28 12:54:01;;;;;;;0.00;0.00;;;7.40;99.90;;;;;;4962165;28;20074;-68
2022/01/28 12:56:46;;;;;;;0.00;0.00;;;7.40;99.90;;;;;;4962460;29;20257;-68
2022/01/28 12:59:11;;;;;;;0.00;0.00;;;7.30;99.90;;;;;;4961871;28;20027;-68
2022/01/28 13:01:37;;;;;;;0.00;0.00;;;7.30;99.90;;;;;;4962308;28;20047;-67
2022/01/28 13:04:15;;;;;;;0.00;0.00;;;7.30;99.90;;;;;;4962248;29;20238;-67
2022/01/28 13:06:59;;;;;;;0.00;0.00;;;7.50;99.90;;;;;;4962275;28;20281;-68
2022/01/28 13:09:25;;;;;;;0.00;0.00;;;7.60;99.90;;;;;;4962658;28;20023;-67
2022/01/28 13:11:54;;;;;;;0.00;0.00;;;7.50;99.90;;;;;;4961453;29;20027;-69
2022/01/28 13:14:40;;;;;;;0.00;0.00;;;7.60;99.90;;;;;;4961895;28;20031;-68
2022/01/28 13:17:08;;;;;;;0.00;0.00;;;7.50;99.90;;;;;;4961493;28;20082;-69
2022/01/28 13:19:34;;;;;;;0.00;0.00;;;7.40;99.90;;;;;;4945555;29;20019;-67
2022/01/28 13:22:00;;;;;;;0.00;0.00;;;7.40;99.90;;;;;;4970697;28;20058;-68
2022/01/28 13:24:27;;;;;;;0.00;0.00;;;7.30;99.90;;;;;;4981661;28;20030;-68
2022/01/28 13:27:07;;;;;;;0.00;0.00;;;7.30;99.90;;;;;;4963947;28;20030;-72
2022/01/28 13:29:36;;;;;;;0.00;0.00;;;7.20;99.90;;;;;;4978632;28;20021;-69
2022/01/28 13:32:36;;;;;;;0.00;0.00;;;7.20;99.90;;;;;;4979841;28;20042;-71
2022/01/28 13:35:02;;;;;;;0.00;0.00;;;7.30;99.90;;;;;;4964017;28;20027;-68
2022/01/28 13:37:38;;;;;;;0.00;0.00;;;7.20;99.90;;;;;;4964520;28;20245;-69
2022/01/28 13:40:13;;;;;;;0.00;0.00;;;7.40;99.90;;;;;;4980893;28;20138;-69
2022/01/28 13:42:59;;;;;;;0.00;0.00;;;7.40;99.90;;;;;;4963897;28;20089;-69
2022/01/28 13:45:30;;;;;;;0.00;0.00;;;7.40;99.90;;;;;;4981361;28;20023;-69
2022/01/28 13:47:56;;;;;;;0.00;0.00;;;7.40;99.90;;;;;;4980565;28;20025;-69
2022/01/28 13:50:27;;;;;;;0.00;0.00;;;7.40;99.90;;;;;;4981367;28;20023;-69
2022/01/28 13:55:52;;;;;;;0.00;0.00;;;7.30;99.90;;;;;;4980970;28;20099;-68
2022/01/28 13:58:19;;;;;;;0.00;0.00;;;7.40;99.90;;;;;;4963628;28;20098;-69
2022/01/28 14:00:50;;;;;;;0.00;0.00;;;7.30;99.90;;;;;;4980960;28;20142;-70
2022/01/28 14:03:19;;;;;;;0.00;0.00;;;7.20;99.90;;;;;;4963281;28;20098;-71
2022/01/28 14:05:57;;;;;;;0.00;0.00;;;7.10;99.90;;;;;;4963820;28;20019;-70
2022/01/28 14:08:55;;;;;;;0.00;0.00;;;7.10;99.90;;;;;;4981500;28;20066;-67
2022/01/28 14:11:36;;;;;;;0.00;0.00;;;7.10;99.90;;;;;;4966838;28;20320;-67
2022/01/28 14:14:47;;;;;;;0.00;0.00;;;7.10;99.90;;;;;;4965824;28;20030;-67
2022/01/28 14:17:11;;;;;;;0.00;0.00;;;7.10;99.90;;;;;;4977730;28;20380;-68
2022/01/28 14:19:39;;;;;;;0.00;0.00;;;7.10;99.90;;;;;;4963669;28;20137;-68
2022/01/28 14:22:08;;;;;;;0.00;0.00;;;7.00;99.90;;;;;;4965867;28;20074;-68
2022/01/28 14:24:39;;;;;;;0.00;0.00;;;7.00;99.90;;;;;;4966980;28;20034;-67
2022/01/28 14:27:14;;;;;;;0.00;0.00;;;7.00;99.90;;;;;;4983614;28;20026;-70
2022/01/28 14:29:52;;;;;;;0.00;0.00;;;7.10;99.90;;;;;;4984080;28;20046;-68
2022/01/28 14:32:21;;;;;;;0.00;0.00;;;7.00;99.90;;;;;;4984086;28;20029;-68
2022/01/28 14:34:51;;;;;;;0.00;0.00;;;7.10;99.90;;;;;;4984166;28;20397;-69
2022/01/28 14:37:17;;;;;;;0.00;0.00;;;7.10;99.90;;;;;;4966275;28;20380;-67
2022/01/28 14:39:44;;;;;;;0.00;0.00;;;7.10;99.90;;;;;;4966697;28;20046;-73